sensor_id;sensor_type;location;lat;lon;timestamp;pressure;altitude;pressure_sealevel;temperature
67966;BMP280;54749;47.850;9.002;2022-12-18T00:03:53;97003.25;;;-4.94
67966;BMP280;54749;47.850;9.002;2022-12-18T00:06:21;97001.59;;;-4.95
67966;BMP280;54749;47.850;9.002;2022-12-18T00:08:48;97001.59;;;-4.95
67966;BMP280;54749;47.850;9.002;2022-12-18T00:11:18;96993.38;;;-4.89
67966;BMP280;54749;47.850;9.002;2022-12-18T00:13:46;96994.19;;;-4.88
67966;BMP280;54749;47.850;9.002;2022-12-18T00:16:18;96990.94;;;-4.86
67966;BMP280;54749;47.850;9.002;2022-12-18T00:18:50;96992.56;;;-4.83
67966;BMP280;54749;47.850;9.002;2022-12-18T00:21:18;96992.53;;;-4.85
67966;BMP280;54749;47.850;9.002;2022-12-18T00:23:47;97001.59;;;-4.81
67966;BMP280;54749;47.850;9.002;2022-12-18T00:26:20;97008.16;;;-4.83
67966;BMP280;54749;47.850;9.002;2022-12-18T00:28:51;97005.72;;;-4.81
67966;BMP280;54749;47.850;9.002;2022-12-18T00:31:22;97012.28;;;-4.82
67966;BMP280;54749;47.850;9.002;2022-12-18T00:33:51;97006.53;;;-4.81
67966;BMP280;54749;47.850;9.002;2022-12-18T00:36:24;97007.31;;;-4.80
67966;BMP280;54749;47.850;9.002;2022-12-18T00:38:52;97001.59;;;-4.81
67966;BMP280;54749;47.850;9.002;2022-12-18T00:41:20;97004.84;;;-4.76
67966;BMP280;54749;47.850;9.002;2022-12-18T00:44:08;96990.88;;;-4.75
67966;BMP280;54749;47.850;9.002;2022-12-18T00:46:36;96999.13;;;-4.73
67966;BMP280;54749;47.850;9.002;2022-12-18T00:49:03;97008.16;;;-4.74
67966;BMP280;54749;47.850;9.002;2022-12-18T00:51:30;97013.06;;;-4.67
67966;BMP280;54749;47.850;9.002;2022-12-18T00:53:57;97019.66;;;-4.64
67966;BMP280;54749;47.850;9.002;2022-12-18T00:56:25;97019.66;;;-4.64
67966;BMP280;54749;47.850;9.002;2022-12-18T00:58:52;97025.41;;;-4.59
67966;BMP280;54749;47.850;9.002;2022-12-18T01:01:20;97018.81;;;-4.54
67966;BMP280;54749;47.850;9.002;2022-12-18T01:03:47;97025.38;;;-4.54
67966;BMP280;54749;47.850;9.002;2022-12-18T01:06:16;97021.28;;;-4.52
67966;BMP280;54749;47.850;9.002;2022-12-18T01:08:43;97031.09;;;-4.50
67966;BMP280;54749;47.850;9.002;2022-12-18T01:11:15;97023.72;;;-4.52
67966;BMP280;54749;47.850;9.002;2022-12-18T01:13:42;97026.22;;;-4.54
67966;BMP280;54749;47.850;9.002;2022-12-18T01:16:12;97025.38;;;-4.51
67966;BMP280;54749;47.850;9.002;2022-12-18T01:18:39;97025.38;;;-4.52
67966;BMP280;54749;47.850;9.002;2022-12-18T01:21:08;97030.31;;;-4.51
67966;BMP280;54749;47.850;9.002;2022-12-18T01:23:36;97032.78;;;-4.56
67966;BMP280;54749;47.850;9.002;2022-12-18T01:26:09;97031.13;;;-4.52
67966;BMP280;54749;47.850;9.002;2022-12-18T01:28:37;97037.72;;;-4.51
67966;BMP280;54749;47.850;9.002;2022-12-18T01:31:33;97037.72;;;-4.56
67966;BMP280;54749;47.850;9.002;2022-12-18T01:34:02;97034.41;;;-4.54
67966;BMP280;54749;47.850;9.002;2022-12-18T01:36:33;97043.44;;;-4.53
67966;BMP280;54749;47.850;9.002;2022-12-18T01:39:05;97045.91;;;-4.50
67966;BMP280;54749;47.850;9.002;2022-12-18T01:41:34;97056.59;;;-4.44
67966;BMP280;54749;47.850;9.002;2022-12-18T01:47:47;97059.06;;;-4.38
67966;BMP280;54749;47.850;9.002;2022-12-18T01:50:19;97050.81;;;-4.40
67966;BMP280;54749;47.850;9.002;2022-12-18T01:53:00;97040.16;;;-4.42
67966;BMP280;54749;47.850;9.002;2022-12-18T01:55:31;97055.75;;;-4.40
67966;BMP280;54749;47.850;9.002;2022-12-18T01:58:00;97055.78;;;-4.43
67966;BMP280;54749;47.850;9.002;2022-12-18T02:00:27;97064.81;;;-4.45
67966;BMP280;54749;47.850;9.002;2022-12-18T02:02:55;97059.06;;;-4.53
67966;BMP280;54749;47.850;9.002;2022-12-18T02:08:25;97054.13;;;-4.53
67966;BMP280;54749;47.850;9.002;2022-12-18T02:13:43;97053.31;;;-4.47
67966;BMP280;54749;47.850;9.002;2022-12-18T02:18:49;97041.81;;;-4.53
67966;BMP280;54749;47.850;9.002;2022-12-18T02:27:15;97054.13;;;-4.58
67966;BMP280;54749;47.850;9.002;2022-12-18T02:29:50;97050.88;;;-4.54
67966;BMP280;54749;47.850;9.002;2022-12-18T02:32:27;97045.94;;;-4.54
67966;BMP280;54749;47.850;9.002;2022-12-18T02:34:57;97045.94;;;-4.57
67966;BMP280;54749;47.850;9.002;2022-12-18T02:37:27;97039.34;;;-4.53
67966;BMP280;54749;47.850;9.002;2022-12-18T02:39:58;97044.25;;;-4.50
67966;BMP280;54749;47.850;9.002;2022-12-18T02:42:27;97033.59;;;-4.49
67966;BMP280;54749;47.850;9.002;2022-12-18T02:44:55;97047.56;;;-4.48
67966;BMP280;54749;47.850;9.002;2022-12-18T02:47:28;97058.22;;;-4.46
67966;BMP280;54749;47.850;9.002;2022-12-18T02:50:10;97050.00;;;-4.45
67966;BMP280;54749;47.850;9.002;2022-12-18T02:55:48;97062.34;;;-4.42
67966;BMP280;54749;47.850;9.002;2022-12-18T02:58:35;97055.75;;;-4.40
67966;BMP280;54749;47.850;9.002;2022-12-18T03:01:19;97055.75;;;-4.37
67966;BMP280;54749;47.850;9.002;2022-12-18T03:03:57;97052.47;;;-4.39
67966;BMP280;54749;47.850;9.002;2022-12-18T03:06:30;97055.75;;;-4.37
67966;BMP280;54749;47.850;9.002;2022-12-18T03:09:02;97054.94;;;-4.33
67966;BMP280;54749;47.850;9.002;2022-12-18T03:11:34;97051.63;;;-4.32
67966;BMP280;54749;47.850;9.002;2022-12-18T03:14:23;97067.25;;;-4.27
67966;BMP280;54749;47.850;9.002;2022-12-18T03:16:54;97061.50;;;-4.26
67966;BMP280;54749;47.850;9.002;2022-12-18T03:19:26;97061.47;;;-4.22
67966;BMP280;54749;47.850;9.002;2022-12-18T03:22:00;97063.94;;;-4.18
67966;BMP280;54749;47.850;9.002;2022-12-18T03:24:37;97049.13;;;-4.16
67966;BMP280;54749;47.850;9.002;2022-12-18T03:27:11;97045.84;;;-4.17
67966;BMP280;54749;47.850;9.002;2022-12-18T03:29:48;97048.28;;;-4.14
67966;BMP280;54749;47.850;9.002;2022-12-18T03:32:33;97050.78;;;-4.17
67966;BMP280;54749;47.850;9.002;2022-12-18T03:35:04;97049.09;;;-4.15
67966;BMP280;54749;47.850;9.002;2022-12-18T03:37:36;97049.13;;;-4.13
67966;BMP280;54749;47.850;9.002;2022-12-18T03:40:04;97049.09;;;-4.09
67966;BMP280;54749;47.850;9.002;2022-12-18T03:42:47;97051.56;;;-4.03
67966;BMP280;54749;47.850;9.002;2022-12-18T03:50:37;97057.28;;;-3.98
67966;BMP280;54749;47.850;9.002;2022-12-18T03:53:24;97059.72;;;-3.91
67966;BMP280;54749;47.850;9.002;2022-12-18T03:55:54;97061.38;;;-3.90
67966;BMP280;54749;47.850;9.002;2022-12-18T03:58:25;97055.59;;;-3.87
67966;BMP280;54749;47.850;9.002;2022-12-18T04:01:04;97062.19;;;-3.89
67966;BMP280;54749;47.850;9.002;2022-12-18T04:03:37;97063.81;;;-3.88
67966;BMP280;54749;47.850;9.002;2022-12-18T04:06:07;97064.66;;;-3.88
67966;BMP280;54749;47.850;9.002;2022-12-18T04:08:34;97064.66;;;-3.86
67966;BMP280;54749;47.850;9.002;2022-12-18T04:11:05;97071.19;;;-3.80
67966;BMP280;54749;47.850;9.002;2022-12-18T04:13:37;97064.59;;;-3.76
67966;BMP280;54749;47.850;9.002;2022-12-18T04:16:10;97071.19;;;-3.78
67966;BMP280;54749;47.850;9.002;2022-12-18T04:18:40;97062.97;;;-3.77
67966;BMP280;54749;47.850;9.002;2022-12-18T04:21:08;97068.72;;;-3.74
67966;BMP280;54749;47.850;9.002;2022-12-18T04:23:36;97066.22;;;-3.71
67966;BMP280;54749;47.850;9.002;2022-12-18T04:26:04;97075.25;;;-3.61
67966;BMP280;54749;47.850;9.002;2022-12-18T04:28:54;97082.63;;;-3.58
67966;BMP280;54749;47.850;9.002;2022-12-18T04:31:21;97071.91;;;-3.54
67966;BMP280;54749;47.850;9.002;2022-12-18T04:33:49;97072.72;;;-3.52
67966;BMP280;54749;47.850;9.002;2022-12-18T04:36:16;97085.06;;;-3.54
67966;BMP280;54749;47.850;9.002;2022-12-18T04:38:45;97077.66;;;-3.51
67966;BMP280;54749;47.850;9.002;2022-12-18T04:41:14;97070.22;;;-3.47
67966;BMP280;54749;47.850;9.002;2022-12-18T04:43:44;97076.78;;;-3.43
67966;BMP280;54749;47.850;9.002;2022-12-18T04:46:11;97080.09;;;-3.44
67966;BMP280;54749;47.850;9.002;2022-12-18T04:48:38;97085.00;;;-3.41
67966;BMP280;54749;47.850;9.002;2022-12-18T04:51:06;97080.06;;;-3.38
67966;BMP280;54749;47.850;9.002;2022-12-18T04:53:33;97089.09;;;-3.37
67966;BMP280;54749;47.850;9.002;2022-12-18T04:56:11;97088.28;;;-3.36
67966;BMP280;54749;47.850;9.002;2022-12-18T04:58:43;97087.47;;;-3.41
67966;BMP280;54749;47.850;9.002;2022-12-18T05:01:14;97089.94;;;-3.38
67966;BMP280;54749;47.850;9.002;2022-12-18T05:03:41;97091.56;;;-3.35
67966;BMP280;54749;47.850;9.002;2022-12-18T05:06:09;97088.28;;;-3.42
67966;BMP280;54749;47.850;9.002;2022-12-18T05:08:37;97092.41;;;-3.39
67966;BMP280;54749;47.850;9.002;2022-12-18T05:11:13;97081.69;;;-3.37
67966;BMP280;54749;47.850;9.002;2022-12-18T05:13:43;97080.84;;;-3.37
67966;BMP280;54749;47.850;9.002;2022-12-18T05:16:11;97087.50;;;-3.42
67966;BMP280;54749;47.850;9.002;2022-12-18T05:18:39;97088.28;;;-3.42
67966;BMP280;54749;47.850;9.002;2022-12-18T05:21:06;97094.91;;;-3.44
67966;BMP280;54749;47.850;9.002;2022-12-18T05:23:33;97104.81;;;-3.47
67966;BMP280;54749;47.850;9.002;2022-12-18T05:26:03;97101.50;;;-3.43
67966;BMP280;54749;47.850;9.002;2022-12-18T05:28:33;97100.63;;;-3.37
67966;BMP280;54749;47.850;9.002;2022-12-18T05:31:02;97103.94;;;-3.34
67966;BMP280;54749;47.850;9.002;2022-12-18T05:33:32;97108.00;;;-3.29
67966;BMP280;54749;47.850;9.002;2022-12-18T05:36:01;97108.81;;;-3.25
67966;BMP280;54749;47.850;9.002;2022-12-18T05:38:30;97119.53;;;-3.26
67966;BMP280;54749;47.850;9.002;2022-12-18T05:40:57;97126.13;;;-3.25
67966;BMP280;54749;47.850;9.002;2022-12-18T05:43:26;97120.31;;;-3.24
67966;BMP280;54749;47.850;9.002;2022-12-18T05:45:53;97109.66;;;-3.25
67966;BMP280;54749;47.850;9.002;2022-12-18T05:48:20;97111.25;;;-3.21
67966;BMP280;54749;47.850;9.002;2022-12-18T05:50:49;97110.41;;;-3.17
67966;BMP280;54749;47.850;9.002;2022-12-18T05:53:18;97115.34;;;-3.15
67966;BMP280;54749;47.850;9.002;2022-12-18T05:55:46;97117.81;;;-3.13
67966;BMP280;54749;47.850;9.002;2022-12-18T05:58:14;97109.56;;;-3.15
67966;BMP280;54749;47.850;9.002;2022-12-18T06:00:44;97119.44;;;-3.15
67966;BMP280;54749;47.850;9.002;2022-12-18T06:03:12;97105.44;;;-3.15
67966;BMP280;54749;47.850;9.002;2022-12-18T06:05:44;97110.41;;;-3.17
67966;BMP280;54749;47.850;9.002;2022-12-18T06:08:13;97104.69;;;-3.20
67966;BMP280;54749;47.850;9.002;2022-12-18T06:10:40;97117.00;;;-3.17
67966;BMP280;54749;47.850;9.002;2022-12-18T06:13:08;97107.09;;;-3.16
67966;BMP280;54749;47.850;9.002;2022-12-18T06:15:38;97104.69;;;-3.28
67966;BMP280;54749;47.850;9.002;2022-12-18T06:18:05;97123.69;;;-3.35
67966;BMP280;54749;47.850;9.002;2022-12-18T06:20:32;97123.72;;;-3.41
67966;BMP280;54749;47.850;9.002;2022-12-18T06:23:00;97117.13;;;-3.41
67966;BMP280;54749;47.850;9.002;2022-12-18T06:25:27;97129.50;;;-3.44
67966;BMP280;54749;47.850;9.002;2022-12-18T06:27:54;97135.25;;;-3.40
67966;BMP280;54749;47.850;9.002;2022-12-18T06:30:22;97130.31;;;-3.39
67966;BMP280;54749;47.850;9.002;2022-12-18T06:32:49;97141.84;;;-3.38
67966;BMP280;54749;47.850;9.002;2022-12-18T06:35:22;97154.19;;;-3.38
67966;BMP280;54749;47.850;9.002;2022-12-18T06:37:49;97150.88;;;-3.34
67966;BMP280;54749;47.850;9.002;2022-12-18T06:40:16;97147.56;;;-3.30
67966;BMP280;54749;47.850;9.002;2022-12-18T06:42:44;97157.41;;;-3.27
67966;BMP280;54749;47.850;9.002;2022-12-18T06:45:10;97152.44;;;-3.23
67966;BMP280;54749;47.850;9.002;2022-12-18T06:47:38;97146.72;;;-3.25
67966;BMP280;54749;47.850;9.002;2022-12-18T06:50:05;97154.09;;;-3.23
67966;BMP280;54749;47.850;9.002;2022-12-18T06:52:33;97159.84;;;-3.20
67966;BMP280;54749;47.850;9.002;2022-12-18T06:55:00;97165.63;;;-3.16
67966;BMP280;54749;47.850;9.002;2022-12-18T06:57:28;97173.00;;;-3.14
67966;BMP280;54749;47.850;9.002;2022-12-18T06:59:54;97162.28;;;-3.14
67966;BMP280;54749;47.850;9.002;2022-12-18T07:02:22;97161.47;;;-3.15
67966;BMP280;54749;47.850;9.002;2022-12-18T07:04:48;97165.59;;;-3.14
67966;BMP280;54749;47.850;9.002;2022-12-18T07:07:16;97163.09;;;-3.11
67966;BMP280;54749;47.850;9.002;2022-12-18T07:09:43;97173.81;;;-3.09
67966;BMP280;54749;47.850;9.002;2022-12-18T07:12:10;97172.19;;;-3.13
67966;BMP280;54749;47.850;9.002;2022-12-18T07:14:37;97179.56;;;-3.11
67966;BMP280;54749;47.850;9.002;2022-12-18T07:17:04;97181.22;;;-3.12
67966;BMP280;54749;47.850;9.002;2022-12-18T07:19:32;97177.13;;;-3.13
67966;BMP280;54749;47.850;9.002;2022-12-18T07:21:59;97173.00;;;-3.14
67966;BMP280;54749;47.850;9.002;2022-12-18T07:24:27;97177.81;;;-2.87
67966;BMP280;54749;47.850;9.002;2022-12-18T07:26:55;97174.91;;;-2.26
67966;BMP280;54749;47.850;9.002;2022-12-18T07:29:22;97179.66;;;-2.06
67966;BMP280;54749;47.850;9.002;2022-12-18T07:31:49;97171.75;;;-1.59
67966;BMP280;54749;47.850;9.002;2022-12-18T07:34:16;97175.09;;;-1.63
67966;BMP280;54749;47.850;9.002;2022-12-18T07:36:43;97193.44;;;-1.80
67966;BMP280;54749;47.850;9.002;2022-12-18T07:39:11;97182.09;;;-2.00
67966;BMP280;54749;47.850;9.002;2022-12-18T07:41:38;97187.09;;;-2.07
67966;BMP280;54749;47.850;9.002;2022-12-18T07:44:15;97170.66;;;-2.14
67966;BMP280;54749;47.850;9.002;2022-12-18T07:46:42;97171.50;;;-2.16
67966;BMP280;54749;47.850;9.002;2022-12-18T07:49:09;97177.28;;;-2.17
67966;BMP280;54749;47.850;9.002;2022-12-18T07:51:36;97174.03;;;-2.24
67966;BMP280;54749;47.850;9.002;2022-12-18T07:54:03;97176.53;;;-2.27
67966;BMP280;54749;47.850;9.002;2022-12-18T07:56:30;97179.03;;;-2.27
67966;BMP280;54749;47.850;9.002;2022-12-18T07:58:58;97191.28;;;-2.16
67966;BMP280;54749;47.850;9.002;2022-12-18T08:01:26;97192.94;;;-2.12
67966;BMP280;54749;47.850;9.002;2022-12-18T08:03:54;97196.16;;;-2.05
67966;BMP280;54749;47.850;9.002;2022-12-18T08:06:21;97206.84;;;-2.00
67966;BMP280;54749;47.850;9.002;2022-12-18T08:08:51;97210.13;;;-1.96
67966;BMP280;54749;47.850;9.002;2022-12-18T08:11:19;97206.00;;;-1.96
67966;BMP280;54749;47.850;9.002;2022-12-18T08:13:47;97201.88;;;-1.95
67966;BMP280;54749;47.850;9.002;2022-12-18T08:16:15;97205.22;;;-2.02
67966;BMP280;54749;47.850;9.002;2022-12-18T08:18:43;97201.97;;;-2.09
67966;BMP280;54749;47.850;9.002;2022-12-18T08:21:18;97201.13;;;-2.08
67966;BMP280;54749;47.850;9.002;2022-12-18T08:23:48;97197.03;;;-2.11
67966;BMP280;54749;47.850;9.002;2022-12-18T08:26:18;97197.06;;;-2.14
67966;BMP280;54749;47.850;9.002;2022-12-18T08:28:46;97201.94;;;-2.07
67966;BMP280;54749;47.850;9.002;2022-12-18T08:31:14;97201.88;;;-1.98
67966;BMP280;54749;47.850;9.002;2022-12-18T08:33:42;97204.31;;;-1.94
67966;BMP280;54749;47.850;9.002;2022-12-18T08:36:10;97205.88;;;-1.84
67966;BMP280;54749;47.850;9.002;2022-12-18T08:38:37;97212.41;;;-1.75
67966;BMP280;54749;47.850;9.002;2022-12-18T08:41:06;97213.13;;;-1.65
67966;BMP280;54749;47.850;9.002;2022-12-18T08:43:34;97212.19;;;-1.54
67966;BMP280;54749;47.850;9.002;2022-12-18T08:46:21;97214.63;;;-1.50
67966;BMP280;54749;47.850;9.002;2022-12-18T08:48:50;97198.03;;;-1.43
67966;BMP280;54749;47.850;9.002;2022-12-18T08:51:18;97204.56;;;-1.38
67966;BMP280;54749;47.850;9.002;2022-12-18T08:53:46;97199.63;;;-1.40
67966;BMP280;54749;47.850;9.002;2022-12-18T08:56:14;97213.78;;;-1.49
67966;BMP280;54749;47.850;9.002;2022-12-18T08:58:44;97203.88;;;-1.47
67966;BMP280;54749;47.850;9.002;2022-12-18T09:01:12;97198.81;;;-1.41
67966;BMP280;54749;47.850;9.002;2022-12-18T09:03:39;97207.84;;;-1.35
67966;BMP280;54749;47.850;9.002;2022-12-18T09:06:08;97196.25;;;-1.31
67966;BMP280;54749;47.850;9.002;2022-12-18T09:08:35;97201.88;;;-1.19
67966;BMP280;54749;47.850;9.002;2022-12-18T09:11:04;97194.31;;;-1.09
67966;BMP280;54749;47.850;9.002;2022-12-18T09:13:31;97186.84;;;-1.07
67966;BMP280;54749;47.850;9.002;2022-12-18T09:15:58;97198.47;;;-1.12
67966;BMP280;54749;47.850;9.002;2022-12-18T09:18:25;97190.25;;;-1.14
67966;BMP280;54749;47.850;9.002;2022-12-18T09:20:52;97183.56;;;-1.09
67966;BMP280;54749;47.850;9.002;2022-12-18T09:23:20;97178.63;;;-1.09
67966;BMP280;54749;47.850;9.002;2022-12-18T09:25:48;97183.63;;;-1.15
67966;BMP280;54749;47.850;9.002;2022-12-18T09:28:18;97190.97;;;-1.06
67966;BMP280;54749;47.850;9.002;2022-12-18T09:30:49;97187.53;;;-0.98
67966;BMP280;54749;47.850;9.002;2022-12-18T09:33:17;97181.69;;;-0.93
67966;BMP280;54749;47.850;9.002;2022-12-18T09:35:45;97180.03;;;-0.91
67966;BMP280;54749;47.850;9.002;2022-12-18T09:38:15;97190.03;;;-0.97
67966;BMP280;54749;47.850;9.002;2022-12-18T09:40:44;97191.50;;;-0.86
67966;BMP280;54749;47.850;9.002;2022-12-18T09:43:19;97195.53;;;-0.76
67966;BMP280;54749;47.850;9.002;2022-12-18T09:46:08;97194.56;;;-0.68
67966;BMP280;54749;47.850;9.002;2022-12-18T09:48:40;97196.09;;;-0.58
67966;BMP280;54749;47.850;9.002;2022-12-18T09:54:07;97194.41;;;-0.56
67966;BMP280;54749;47.850;9.002;2022-12-18T09:56:40;97182.72;;;-0.48
67966;BMP280;54749;47.850;9.002;2022-12-18T09:59:24;97199.16;;;-0.41
67966;BMP280;54749;47.850;9.002;2022-12-18T10:01:52;97188.28;;;-0.35
67966;BMP280;54749;47.850;9.002;2022-12-18T10:04:19;97185.63;;;-0.23
67966;BMP280;54749;47.850;9.002;2022-12-18T10:06:52;97193.69;;;-0.09
67966;BMP280;54749;47.850;9.002;2022-12-18T10:09:37;97201.91;;;-0.06
67966;BMP280;54749;47.850;9.002;2022-12-18T10:15:04;97189.00;;;-0.27
67966;BMP280;54749;47.850;9.002;2022-12-18T10:20:32;97208.69;;;-0.15
67966;BMP280;54749;47.850;9.002;2022-12-18T10:23:12;97199.56;;;-0.13
67966;BMP280;54749;47.850;9.002;2022-12-18T10:26:10;97190.47;;;-0.16
67966;BMP280;54749;47.850;9.002;2022-12-18T10:28:41;97184.53;;;-0.07
67966;BMP280;54749;47.850;9.002;2022-12-18T10:31:21;97187.53;;;0.11
67966;BMP280;54749;47.850;9.002;2022-12-18T10:33:53;97186.63;;;0.16
67966;BMP280;54749;47.850;9.002;2022-12-18T10:36:23;97186.63;;;0.16
67966;BMP280;54749;47.850;9.002;2022-12-18T10:38:51;97195.91;;;0.05
67966;BMP280;54749;47.850;9.002;2022-12-18T10:43:48;97192.50;;;0.12
67966;BMP280;54749;47.850;9.002;2022-12-18T10:46:17;97182.34;;;0.22
67966;BMP280;54749;47.850;9.002;2022-12-18T10:51:31;97201.53;;;0.16
67966;BMP280;54749;47.850;9.002;2022-12-18T10:54:04;97188.47;;;0.05
67966;BMP280;54749;47.850;9.002;2022-12-18T10:56:34;97195.91;;;0.05
67966;BMP280;54749;47.850;9.002;2022-12-18T10:59:07;97186.81;;;0.04
67966;BMP280;54749;47.850;9.002;2022-12-18T11:04:31;97215.97;;;-0.05
67966;BMP280;54749;47.850;9.002;2022-12-18T11:07:05;97196.94;;;-0.04
67966;BMP280;54749;47.850;9.002;2022-12-18T11:09:33;97196.25;;;-0.14
67966;BMP280;54749;47.850;9.002;2022-12-18T11:12:14;97175.41;;;-0.05
67966;BMP280;54749;47.850;9.002;2022-12-18T11:14:51;97175.25;;;0.03
67966;BMP280;54749;47.850;9.002;2022-12-18T11:17:36;97168.72;;;-0.03
67966;BMP280;54749;47.850;9.002;2022-12-18T11:20:05;97167.97;;;-0.08
67966;BMP280;54749;47.850;9.002;2022-12-18T11:22:36;97178.66;;;-0.03
67966;BMP280;54749;47.850;9.002;2022-12-18T11:25:25;97173.91;;;-0.15
67966;BMP280;54749;47.850;9.002;2022-12-18T11:28:04;97168.78;;;-0.06
67966;BMP280;54749;47.850;9.002;2022-12-18T11:30:36;97175.13;;;0.09
67966;BMP280;54749;47.850;9.002;2022-12-18T11:33:29;97166.81;;;0.12
67966;BMP280;54749;47.850;9.002;2022-12-18T11:35:59;97168.44;;;0.14
67966;BMP280;54749;47.850;9.002;2022-12-18T11:38:35;97170.81;;;0.21
67966;BMP280;54749;47.850;9.002;2022-12-18T11:41:19;97171.50;;;0.28
67966;BMP280;54749;47.850;9.002;2022-12-18T11:44:00;97157.25;;;0.35
67966;BMP280;54749;47.850;9.002;2022-12-18T11:46:35;97154.53;;;0.49
67966;BMP280;54749;47.850;9.002;2022-12-18T11:49:11;97142.56;;;0.67
67966;BMP280;54749;47.850;9.002;2022-12-18T11:51:49;97146.78;;;0.65
67966;BMP280;54749;47.850;9.002;2022-12-18T11:54:17;97136.78;;;0.66
67966;BMP280;54749;47.850;9.002;2022-12-18T11:56:55;97139.16;;;0.70
67966;BMP280;54749;47.850;9.002;2022-12-18T12:07:45;97127.19;;;0.88
67966;BMP280;54749;47.850;9.002;2022-12-18T12:37:47;97122.13;;;0.93
67966;BMP280;54749;47.850;9.002;2022-12-18T12:40:18;97115.25;;;1.04
67966;BMP280;54749;47.850;9.002;2022-12-18T12:43:38;97104.56;;;0.99
67966;BMP280;54749;47.850;9.002;2022-12-18T12:46:18;97105.34;;;1.01
67966;BMP280;54749;47.850;9.002;2022-12-18T12:48:50;97112.63;;;1.09
67966;BMP280;54749;47.850;9.002;2022-12-18T12:51:21;97112.47;;;1.17
67966;BMP280;54749;47.850;9.002;2022-12-18T12:53:50;97114.25;;;1.10
67966;BMP280;54749;47.850;9.002;2022-12-18T12:56:19;97107.91;;;0.98
67966;BMP280;54749;47.850;9.002;2022-12-18T12:59:10;97103.78;;;0.97
67966;BMP280;54749;47.850;9.002;2022-12-18T13:01:41;97118.72;;;0.97
67966;BMP280;54749;47.850;9.002;2022-12-18T13:07:37;97102.13;;;0.96
67966;BMP280;54749;47.850;9.002;2022-12-18T13:12:53;97107.00;;;1.02
67966;BMP280;54749;47.850;9.002;2022-12-18T13:21:11;97102.31;;;0.88
67966;BMP280;54749;47.850;9.002;2022-12-18T13:23:43;97107.44;;;0.81
67966;BMP280;54749;47.850;9.002;2022-12-18T13:28:53;97120.13;;;0.69
67966;BMP280;54749;47.850;9.002;2022-12-18T13:34:16;97110.44;;;0.56
67966;BMP280;54749;47.850;9.002;2022-12-18T13:36:54;97117.19;;;0.52
67966;BMP280;54749;47.850;9.002;2022-12-18T13:39:24;97114.66;;;0.53
67966;BMP280;54749;47.850;9.002;2022-12-18T13:44:37;97111.97;;;0.63
67966;BMP280;54749;47.850;9.002;2022-12-18T13:47:31;97101.28;;;0.60
67966;BMP280;54749;47.850;9.002;2022-12-18T13:50:02;97101.44;;;0.51
67966;BMP280;54749;47.850;9.002;2022-12-18T13:52:39;97105.94;;;0.33
67966;BMP280;54749;47.850;9.002;2022-12-18T13:55:15;97106.94;;;0.25
67966;BMP280;54749;47.850;9.002;2022-12-18T13:57:43;97117.75;;;0.22
67966;BMP280;54749;47.850;9.002;2022-12-18T14:02:45;97118.78;;;0.11
67966;BMP280;54749;47.850;9.002;2022-12-18T14:05:32;97115.63;;;0.03
67966;BMP280;54749;47.850;9.002;2022-12-18T14:08:03;97108.19;;;0.02
67966;BMP280;54749;47.850;9.002;2022-12-18T14:10:32;97108.19;;;0.02
67966;BMP280;54749;47.850;9.002;2022-12-18T14:13:26;97116.47;;;0.02
67966;BMP280;54749;47.850;9.002;2022-12-18T14:15:56;97115.63;;;0.03
67966;BMP280;54749;47.850;9.002;2022-12-18T14:21:00;97117.44;;;-0.04
67966;BMP280;54749;47.850;9.002;2022-12-18T14:23:40;97117.44;;;-0.04
67966;BMP280;54749;47.850;9.002;2022-12-18T14:28:50;97125.56;;;0.02
67966;BMP280;54749;47.850;9.002;2022-12-18T14:31:23;97123.91;;;0.02
67966;BMP280;54749;47.850;9.002;2022-12-18T14:33:51;97119.94;;;-0.07
67966;BMP280;54749;47.850;9.002;2022-12-18T14:36:21;97136.81;;;-0.25
67966;BMP280;54749;47.850;9.002;2022-12-18T14:38:56;97132.72;;;-0.28
67966;BMP280;54749;47.850;9.002;2022-12-18T14:41:25;97135.19;;;-0.26
67966;BMP280;54749;47.850;9.002;2022-12-18T14:43:54;97131.00;;;-0.23
67966;BMP280;54749;47.850;9.002;2022-12-18T14:48:51;97129.56;;;-0.38
67966;BMP280;54749;47.850;9.002;2022-12-18T14:51:21;97126.28;;;-0.39
67966;BMP280;54749;47.850;9.002;2022-12-18T14:53:53;97132.03;;;-0.35
67966;BMP280;54749;47.850;9.002;2022-12-18T14:56:24;97133.66;;;-0.35
67966;BMP280;54749;47.850;9.002;2022-12-18T14:58:57;97147.72;;;-0.34
67966;BMP280;54749;47.850;9.002;2022-12-18T15:01:27;97149.44;;;-0.37
67966;BMP280;54749;47.850;9.002;2022-12-18T15:03:56;97143.03;;;-0.51
67966;BMP280;54749;47.850;9.002;2022-12-18T15:06:33;97135.72;;;-0.60
67966;BMP280;54749;47.850;9.002;2022-12-18T15:09:05;97145.72;;;-0.64
67966;BMP280;54749;47.850;9.002;2022-12-18T15:11:45;97147.41;;;-0.68
67966;BMP280;54749;47.850;9.002;2022-12-18T15:17:13;97142.59;;;-0.76
67966;BMP280;54749;47.850;9.002;2022-12-18T15:19:42;97140.97;;;-0.79
67966;BMP280;54749;47.850;9.002;2022-12-18T15:22:37;97143.53;;;-0.86
67966;BMP280;54749;47.850;9.002;2022-12-18T15:25:31;97146.25;;;-1.01
67966;BMP280;54749;47.850;9.002;2022-12-18T15:27:59;97143.78;;;-1.04
67966;BMP280;54749;47.850;9.002;2022-12-18T15:30:26;97143.03;;;-1.07
67966;BMP280;54749;47.850;9.002;2022-12-18T15:33:17;97149.56;;;-1.03
67966;BMP280;54749;47.850;9.002;2022-12-18T15:35:59;97147.91;;;-1.03
67966;BMP280;54749;47.850;9.002;2022-12-18T15:38:27;97146.31;;;-1.05
67966;BMP280;54749;47.850;9.002;2022-12-18T15:40:54;97161.16;;;-1.02
67966;BMP280;54749;47.850;9.002;2022-12-18T15:43:23;97146.25;;;-1.01
67966;BMP280;54749;47.850;9.002;2022-12-18T15:48:43;97145.44;;;-1.03
67966;BMP280;54749;47.850;9.002;2022-12-18T15:51:31;97140.47;;;-1.01
67966;BMP280;54749;47.850;9.002;2022-12-18T15:54:02;97143.78;;;-1.01
67966;BMP280;54749;47.850;9.002;2022-12-18T15:56:30;97142.97;;;-1.03
67966;BMP280;54749;47.850;9.002;2022-12-18T15:59:18;97143.84;;;-1.06
67966;BMP280;54749;47.850;9.002;2022-12-18T16:01:47;97142.25;;;-1.10
67966;BMP280;54749;47.850;9.002;2022-12-18T16:04:17;97151.41;;;-1.15
67966;BMP280;54749;47.850;9.002;2022-12-18T16:06:47;97151.41;;;-1.17
67966;BMP280;54749;47.850;9.002;2022-12-18T16:09:35;97155.59;;;-1.19
67966;BMP280;54749;47.850;9.002;2022-12-18T16:12:02;97150.69;;;-1.24
67966;BMP280;54749;47.850;9.002;2022-12-18T16:14:31;97154.03;;;-1.27
67966;BMP280;54749;47.850;9.002;2022-12-18T16:17:02;97165.56;;;-1.24
67966;BMP280;54749;47.850;9.002;2022-12-18T16:19:30;97165.56;;;-1.23
67966;BMP280;54749;47.850;9.002;2022-12-18T16:21:58;97154.00;;;-1.25
67966;BMP280;54749;47.850;9.002;2022-12-18T16:24:27;97154.06;;;-1.30
67966;BMP280;54749;47.850;9.002;2022-12-18T16:26:57;97161.47;;;-1.27
67966;BMP280;54749;47.850;9.002;2022-12-18T16:29:27;97162.34;;;-1.31
67966;BMP280;54749;47.850;9.002;2022-12-18T16:31:59;97157.34;;;-1.29
67966;BMP280;54749;47.850;9.002;2022-12-18T16:34:29;97154.09;;;-1.33